sensor_id;sensor_type;location;lat;lon;timestamp;P1;durP1;ratioP1;P2;durP2;ratioP2
17390;SDS011;8813;54.444;18.446;2024-03-17T00:00:30;3.95;;;2.63;;
17390;SDS011;8813;54.444;18.446;2024-03-17T00:02:57;4.13;;;2.00;;
17390;SDS011;8813;54.444;18.446;2024-03-17T00:05:25;1.88;;;1.77;;
17390;SDS011;8813;54.444;18.446;2024-03-17T00:07:51;1.85;;;1.83;;
17390;SDS011;8813;54.444;18.446;2024-03-17T00:10:18;1.95;;;1.80;;
17390;SDS011;8813;54.444;18.446;2024-03-17T00:12:44;1.50;;;1.50;;
17390;SDS011;8813;54.444;18.446;2024-03-17T00:15:11;1.70;;;1.70;;
17390;SDS011;8813;54.444;18.446;2024-03-17T00:17:37;1.95;;;1.90;;
17390;SDS011;8813;54.444;18.446;2024-03-17T00:20:05;4.43;;;2.40;;
17390;SDS011;8813;54.444;18.446;2024-03-17T00:22:36;10.55;;;2.35;;
17390;SDS011;8813;54.444;18.446;2024-03-17T00:25:05;2.28;;;1.95;;
17390;SDS011;8813;54.444;18.446;2024-03-17T00:27:31;1.77;;;1.70;;
17390;SDS011;8813;54.444;18.446;2024-03-17T00:29:58;1.70;;;1.70;;
17390;SDS011;8813;54.444;18.446;2024-03-17T00:32:24;4.50;;;2.47;;
17390;SDS011;8813;54.444;18.446;2024-03-17T00:34:51;2.35;;;2.10;;
17390;SDS011;8813;54.444;18.446;2024-03-17T00:37:17;1.67;;;1.67;;
17390;SDS011;8813;54.444;18.446;2024-03-17T00:39:46;1.75;;;1.75;;
17390;SDS011;8813;54.444;18.446;2024-03-17T00:42:12;2.00;;;2.00;;
17390;SDS011;8813;54.444;18.446;2024-03-17T00:44:40;5.40;;;1.88;;
17390;SDS011;8813;54.444;18.446;2024-03-17T00:47:06;4.63;;;4.15;;
17390;SDS011;8813;54.444;18.446;2024-03-17T00:49:34;1.98;;;1.90;;
17390;SDS011;8813;54.444;18.446;2024-03-17T00:52:00;2.67;;;2.50;;
17390;SDS011;8813;54.444;18.446;2024-03-17T00:54:27;2.10;;;2.10;;
17390;SDS011;8813;54.444;18.446;2024-03-17T00:56:55;2.63;;;2.42;;
17390;SDS011;8813;54.444;18.446;2024-03-17T00:59:22;3.60;;;2.92;;
17390;SDS011;8813;54.444;18.446;2024-03-17T01:01:48;2.30;;;2.20;;
17390;SDS011;8813;54.444;18.446;2024-03-17T01:04:15;1.95;;;1.95;;
17390;SDS011;8813;54.444;18.446;2024-03-17T01:06:41;2.10;;;1.90;;
17390;SDS011;8813;54.444;18.446;2024-03-17T01:09:08;7.10;;;3.03;;
17390;SDS011;8813;54.444;18.446;2024-03-17T01:11:34;2.00;;;2.00;;
17390;SDS011;8813;54.444;18.446;2024-03-17T01:14:02;2.60;;;2.40;;
17390;SDS011;8813;54.444;18.446;2024-03-17T01:16:28;1.88;;;1.88;;
17390;SDS011;8813;54.444;18.446;2024-03-17T01:18:55;2.10;;;2.10;;
17390;SDS011;8813;54.444;18.446;2024-03-17T01:21:21;2.63;;;2.43;;
17390;SDS011;8813;54.444;18.446;2024-03-17T01:23:49;2.37;;;2.33;;
17390;SDS011;8813;54.444;18.446;2024-03-17T01:26:15;1.70;;;1.70;;
17390;SDS011;8813;54.444;18.446;2024-03-17T01:28:42;3.80;;;2.23;;
17390;SDS011;8813;54.444;18.446;2024-03-17T01:31:09;1.90;;;1.80;;
17390;SDS011;8813;54.444;18.446;2024-03-17T01:33:36;8.77;;;5.83;;
17390;SDS011;8813;54.444;18.446;2024-03-17T01:36:02;2.83;;;1.70;;
17390;SDS011;8813;54.444;18.446;2024-03-17T01:38:29;1.60;;;1.60;;
17390;SDS011;8813;54.444;18.446;2024-03-17T01:40:55;2.00;;;1.90;;
17390;SDS011;8813;54.444;18.446;2024-03-17T01:43:22;2.20;;;2.10;;
17390;SDS011;8813;54.444;18.446;2024-03-17T01:45:48;2.40;;;2.30;;
17390;SDS011;8813;54.444;18.446;2024-03-17T01:48:17;1.83;;;1.83;;
17390;SDS011;8813;54.444;18.446;2024-03-17T01:50:44;2.67;;;2.27;;
17390;SDS011;8813;54.444;18.446;2024-03-17T01:53:13;1.90;;;1.90;;
17390;SDS011;8813;54.444;18.446;2024-03-17T01:55:40;2.00;;;2.00;;
17390;SDS011;8813;54.444;18.446;2024-03-17T01:58:10;1.93;;;1.93;;
17390;SDS011;8813;54.444;18.446;2024-03-17T02:00:36;2.40;;;2.30;;
17390;SDS011;8813;54.444;18.446;2024-03-17T02:03:04;2.40;;;2.30;;
17390;SDS011;8813;54.444;18.446;2024-03-17T02:05:31;2.00;;;2.00;;
17390;SDS011;8813;54.444;18.446;2024-03-17T02:07:59;2.30;;;2.20;;
17390;SDS011;8813;54.444;18.446;2024-03-17T02:10:28;3.70;;;2.10;;
17390;SDS011;8813;54.444;18.446;2024-03-17T02:12:54;2.70;;;2.60;;
17390;SDS011;8813;54.444;18.446;2024-03-17T02:15:21;2.20;;;2.10;;
17390;SDS011;8813;54.444;18.446;2024-03-17T02:17:47;2.50;;;2.50;;
17390;SDS011;8813;54.444;18.446;2024-03-17T02:20:14;1.97;;;1.97;;
17390;SDS011;8813;54.444;18.446;2024-03-17T02:22:42;1.90;;;1.90;;
17390;SDS011;8813;54.444;18.446;2024-03-17T02:25:09;2.00;;;2.00;;
17390;SDS011;8813;54.444;18.446;2024-03-17T02:27:35;1.80;;;1.80;;
17390;SDS011;8813;54.444;18.446;2024-03-17T02:30:02;1.93;;;1.87;;
17390;SDS011;8813;54.444;18.446;2024-03-17T02:32:28;1.80;;;1.80;;
17390;SDS011;8813;54.444;18.446;2024-03-17T02:34:54;1.80;;;1.80;;
17390;SDS011;8813;54.444;18.446;2024-03-17T02:37:22;1.90;;;1.90;;
17390;SDS011;8813;54.444;18.446;2024-03-17T02:39:50;1.90;;;1.90;;
17390;SDS011;8813;54.444;18.446;2024-03-17T02:42:16;1.70;;;1.70;;
17390;SDS011;8813;54.444;18.446;2024-03-17T02:44:43;1.60;;;1.60;;
17390;SDS011;8813;54.444;18.446;2024-03-17T02:47:10;1.97;;;1.97;;
17390;SDS011;8813;54.444;18.446;2024-03-17T02:49:40;1.70;;;1.70;;
17390;SDS011;8813;54.444;18.446;2024-03-17T02:52:09;4.93;;;1.90;;
17390;SDS011;8813;54.444;18.446;2024-03-17T02:54:37;1.87;;;1.87;;
17390;SDS011;8813;54.444;18.446;2024-03-17T02:57:06;2.50;;;1.80;;
17390;SDS011;8813;54.444;18.446;2024-03-17T02:59:33;2.70;;;2.20;;
17390;SDS011;8813;54.444;18.446;2024-03-17T03:02:00;1.80;;;1.80;;
17390;SDS011;8813;54.444;18.446;2024-03-17T03:04:27;1.80;;;1.80;;
17390;SDS011;8813;54.444;18.446;2024-03-17T03:06:54;2.20;;;2.03;;
17390;SDS011;8813;54.444;18.446;2024-03-17T03:09:21;1.80;;;1.80;;
17390;SDS011;8813;54.444;18.446;2024-03-17T03:11:51;2.00;;;2.00;;
17390;SDS011;8813;54.444;18.446;2024-03-17T03:14:20;2.20;;;2.10;;
17390;SDS011;8813;54.444;18.446;2024-03-17T03:16:47;1.70;;;1.70;;
17390;SDS011;8813;54.444;18.446;2024-03-17T03:19:15;2.10;;;2.00;;
17390;SDS011;8813;54.444;18.446;2024-03-17T03:21:42;1.80;;;1.80;;
17390;SDS011;8813;54.444;18.446;2024-03-17T03:24:09;3.07;;;2.10;;
17390;SDS011;8813;54.444;18.446;2024-03-17T03:26:36;1.80;;;1.80;;
17390;SDS011;8813;54.444;18.446;2024-03-17T03:29:03;1.50;;;1.50;;
17390;SDS011;8813;54.444;18.446;2024-03-17T03:31:32;1.67;;;1.67;;
17390;SDS011;8813;54.444;18.446;2024-03-17T03:33:59;1.80;;;1.80;;
17390;SDS011;8813;54.444;18.446;2024-03-17T03:36:27;1.70;;;1.70;;
17390;SDS011;8813;54.444;18.446;2024-03-17T03:38:54;1.70;;;1.60;;
17390;SDS011;8813;54.444;18.446;2024-03-17T03:41:22;1.70;;;1.70;;
17390;SDS011;8813;54.444;18.446;2024-03-17T03:43:50;1.73;;;1.73;;
17390;SDS011;8813;54.444;18.446;2024-03-17T03:46:17;1.80;;;1.80;;
17390;SDS011;8813;54.444;18.446;2024-03-17T03:48:46;1.70;;;1.70;;
17390;SDS011;8813;54.444;18.446;2024-03-17T03:51:13;1.87;;;1.87;;
17390;SDS011;8813;54.444;18.446;2024-03-17T03:53:39;1.70;;;1.70;;
17390;SDS011;8813;54.444;18.446;2024-03-17T03:56:07;2.30;;;2.30;;
17390;SDS011;8813;54.444;18.446;2024-03-17T03:58:35;2.20;;;2.20;;
17390;SDS011;8813;54.444;18.446;2024-03-17T04:01:03;1.97;;;1.97;;
17390;SDS011;8813;54.444;18.446;2024-03-17T04:03:30;2.30;;;2.10;;
17390;SDS011;8813;54.444;18.446;2024-03-17T04:06:03;2.00;;;2.00;;
17390;SDS011;8813;54.444;18.446;2024-03-17T04:08:30;1.97;;;1.97;;
17390;SDS011;8813;54.444;18.446;2024-03-17T04:10:58;2.30;;;2.10;;
17390;SDS011;8813;54.444;18.446;2024-03-17T04:13:26;2.03;;;2.03;;
17390;SDS011;8813;54.444;18.446;2024-03-17T04:15:53;2.27;;;2.27;;
17390;SDS011;8813;54.444;18.446;2024-03-17T04:18:22;2.30;;;2.30;;
17390;SDS011;8813;54.444;18.446;2024-03-17T04:20:50;2.93;;;2.93;;
17390;SDS011;8813;54.444;18.446;2024-03-17T04:23:19;2.60;;;2.60;;
17390;SDS011;8813;54.444;18.446;2024-03-17T04:25:46;2.70;;;2.70;;
17390;SDS011;8813;54.444;18.446;2024-03-17T04:28:14;3.10;;;3.00;;
17390;SDS011;8813;54.444;18.446;2024-03-17T04:30:41;2.80;;;2.80;;
17390;SDS011;8813;54.444;18.446;2024-03-17T04:33:08;2.80;;;2.80;;
17390;SDS011;8813;54.444;18.446;2024-03-17T04:35:35;2.83;;;2.83;;
17390;SDS011;8813;54.444;18.446;2024-03-17T04:38:02;3.10;;;3.10;;
17390;SDS011;8813;54.444;18.446;2024-03-17T04:40:31;3.50;;;3.40;;
17390;SDS011;8813;54.444;18.446;2024-03-17T04:42:58;3.37;;;3.27;;
17390;SDS011;8813;54.444;18.446;2024-03-17T04:45:25;3.20;;;3.10;;
17390;SDS011;8813;54.444;18.446;2024-03-17T04:47:52;3.60;;;3.40;;
17390;SDS011;8813;54.444;18.446;2024-03-17T04:50:19;3.67;;;3.57;;
17390;SDS011;8813;54.444;18.446;2024-03-17T04:52:46;3.17;;;3.07;;
17390;SDS011;8813;54.444;18.446;2024-03-17T04:55:14;3.17;;;3.17;;
17390;SDS011;8813;54.444;18.446;2024-03-17T04:57:43;3.90;;;3.80;;
17390;SDS011;8813;54.444;18.446;2024-03-17T05:00:10;3.20;;;3.20;;
17390;SDS011;8813;54.444;18.446;2024-03-17T05:02:37;3.20;;;3.20;;
17390;SDS011;8813;54.444;18.446;2024-03-17T05:05:04;3.40;;;3.40;;
17390;SDS011;8813;54.444;18.446;2024-03-17T05:07:33;3.60;;;3.50;;
17390;SDS011;8813;54.444;18.446;2024-03-17T05:10:00;3.70;;;3.60;;
17390;SDS011;8813;54.444;18.446;2024-03-17T05:12:27;3.90;;;3.80;;
17390;SDS011;8813;54.444;18.446;2024-03-17T05:14:56;4.77;;;4.37;;
17390;SDS011;8813;54.444;18.446;2024-03-17T05:17:23;4.23;;;4.13;;
17390;SDS011;8813;54.444;18.446;2024-03-17T05:19:50;3.80;;;3.70;;
17390;SDS011;8813;54.444;18.446;2024-03-17T05:22:17;4.30;;;4.20;;
17390;SDS011;8813;54.444;18.446;2024-03-17T05:24:44;4.60;;;4.50;;
17390;SDS011;8813;54.444;18.446;2024-03-17T05:27:10;4.30;;;4.20;;
17390;SDS011;8813;54.444;18.446;2024-03-17T05:29:37;4.10;;;4.00;;
17390;SDS011;8813;54.444;18.446;2024-03-17T05:32:06;4.30;;;4.20;;
17390;SDS011;8813;54.444;18.446;2024-03-17T05:34:33;3.80;;;3.70;;
17390;SDS011;8813;54.444;18.446;2024-03-17T05:37:00;4.50;;;4.40;;
17390;SDS011;8813;54.444;18.446;2024-03-17T05:39:27;4.40;;;4.30;;
17390;SDS011;8813;54.444;18.446;2024-03-17T05:41:54;4.30;;;4.20;;
17390;SDS011;8813;54.444;18.446;2024-03-17T05:44:21;4.20;;;4.10;;
17390;SDS011;8813;54.444;18.446;2024-03-17T05:46:48;4.50;;;4.40;;
17390;SDS011;8813;54.444;18.446;2024-03-17T05:49:19;4.10;;;4.00;;
17390;SDS011;8813;54.444;18.446;2024-03-17T05:51:46;3.90;;;3.80;;
17390;SDS011;8813;54.444;18.446;2024-03-17T05:54:13;3.40;;;3.40;;
17390;SDS011;8813;54.444;18.446;2024-03-17T05:56:40;3.60;;;3.50;;
17390;SDS011;8813;54.444;18.446;2024-03-17T05:59:08;4.20;;;4.10;;
17390;SDS011;8813;54.444;18.446;2024-03-17T06:01:35;3.80;;;3.70;;
17390;SDS011;8813;54.444;18.446;2024-03-17T06:04:02;3.70;;;3.60;;
17390;SDS011;8813;54.444;18.446;2024-03-17T06:06:31;3.93;;;3.83;;
17390;SDS011;8813;54.444;18.446;2024-03-17T06:08:58;3.70;;;3.60;;
17390;SDS011;8813;54.444;18.446;2024-03-17T06:11:25;3.77;;;3.67;;
17390;SDS011;8813;54.444;18.446;2024-03-17T06:13:52;3.73;;;3.63;;
17390;SDS011;8813;54.444;18.446;2024-03-17T06:16:19;3.77;;;3.67;;
17390;SDS011;8813;54.444;18.446;2024-03-17T06:18:46;3.80;;;3.70;;
17390;SDS011;8813;54.444;18.446;2024-03-17T06:21:15;4.10;;;4.00;;
17390;SDS011;8813;54.444;18.446;2024-03-17T06:23:44;3.80;;;3.70;;
17390;SDS011;8813;54.444;18.446;2024-03-17T06:26:11;4.10;;;4.00;;
17390;SDS011;8813;54.444;18.446;2024-03-17T06:28:39;4.00;;;3.90;;
17390;SDS011;8813;54.444;18.446;2024-03-17T06:31:06;4.27;;;4.17;;
17390;SDS011;8813;54.444;18.446;2024-03-17T06:33:35;4.10;;;4.00;;
17390;SDS011;8813;54.444;18.446;2024-03-17T06:36:02;4.10;;;4.00;;
17390;SDS011;8813;54.444;18.446;2024-03-17T06:38:31;4.23;;;4.13;;
17390;SDS011;8813;54.444;18.446;2024-03-17T06:40:59;4.70;;;4.60;;
17390;SDS011;8813;54.444;18.446;2024-03-17T06:43:26;4.40;;;4.30;;
17390;SDS011;8813;54.444;18.446;2024-03-17T06:45:53;4.20;;;4.10;;
17390;SDS011;8813;54.444;18.446;2024-03-17T06:48:21;4.40;;;4.30;;
17390;SDS011;8813;54.444;18.446;2024-03-17T06:50:48;4.40;;;4.30;;
17390;SDS011;8813;54.444;18.446;2024-03-17T06:53:16;4.70;;;4.60;;
17390;SDS011;8813;54.444;18.446;2024-03-17T06:55:44;4.60;;;4.50;;
17390;SDS011;8813;54.444;18.446;2024-03-17T06:58:13;4.87;;;4.67;;
17390;SDS011;8813;54.444;18.446;2024-03-17T07:00:40;4.60;;;4.50;;
17390;SDS011;8813;54.444;18.446;2024-03-17T07:03:09;4.37;;;4.27;;
17390;SDS011;8813;54.444;18.446;2024-03-17T07:05:36;4.40;;;4.30;;
17390;SDS011;8813;54.444;18.446;2024-03-17T07:08:03;4.13;;;4.03;;
17390;SDS011;8813;54.444;18.446;2024-03-17T07:10:31;5.00;;;4.90;;
17390;SDS011;8813;54.444;18.446;2024-03-17T07:12:57;4.60;;;4.50;;
17390;SDS011;8813;54.444;18.446;2024-03-17T07:15:26;4.50;;;4.40;;
17390;SDS011;8813;54.444;18.446;2024-03-17T07:17:53;4.20;;;4.10;;
17390;SDS011;8813;54.444;18.446;2024-03-17T07:20:19;4.10;;;4.00;;
17390;SDS011;8813;54.444;18.446;2024-03-17T07:22:48;3.23;;;3.23;;
17390;SDS011;8813;54.444;18.446;2024-03-17T07:25:15;3.20;;;3.20;;
17390;SDS011;8813;54.444;18.446;2024-03-17T07:27:42;3.10;;;3.10;;
17390;SDS011;8813;54.444;18.446;2024-03-17T07:30:09;3.10;;;3.10;;
17390;SDS011;8813;54.444;18.446;2024-03-17T07:32:38;3.10;;;3.10;;
17390;SDS011;8813;54.444;18.446;2024-03-17T07:35:05;3.20;;;3.20;;
17390;SDS011;8813;54.444;18.446;2024-03-17T07:37:32;3.40;;;3.40;;
17390;SDS011;8813;54.444;18.446;2024-03-17T07:39:59;4.57;;;4.47;;
17390;SDS011;8813;54.444;18.446;2024-03-17T07:42:26;3.23;;;3.23;;
17390;SDS011;8813;54.444;18.446;2024-03-17T07:44:53;3.10;;;3.10;;
17390;SDS011;8813;54.444;18.446;2024-03-17T07:47:20;3.00;;;3.00;;
17390;SDS011;8813;54.444;18.446;2024-03-17T07:49:49;3.00;;;3.00;;
17390;SDS011;8813;54.444;18.446;2024-03-17T07:52:16;3.40;;;3.40;;
17390;SDS011;8813;54.444;18.446;2024-03-17T07:54:44;7.80;;;4.57;;
17390;SDS011;8813;54.444;18.446;2024-03-17T07:57:12;3.80;;;3.70;;
17390;SDS011;8813;54.444;18.446;2024-03-17T07:59:40;3.33;;;3.33;;
17390;SDS011;8813;54.444;18.446;2024-03-17T08:02:08;3.40;;;3.40;;
17390;SDS011;8813;54.444;18.446;2024-03-17T08:04:35;3.10;;;3.10;;
17390;SDS011;8813;54.444;18.446;2024-03-17T08:07:05;2.97;;;2.97;;
17390;SDS011;8813;54.444;18.446;2024-03-17T08:09:32;3.20;;;3.20;;
17390;SDS011;8813;54.444;18.446;2024-03-17T08:11:59;3.27;;;3.20;;
17390;SDS011;8813;54.444;18.446;2024-03-17T08:14:27;3.00;;;3.00;;
17390;SDS011;8813;54.444;18.446;2024-03-17T08:16:54;2.80;;;2.80;;
17390;SDS011;8813;54.444;18.446;2024-03-17T08:19:21;2.70;;;2.70;;
17390;SDS011;8813;54.444;18.446;2024-03-17T08:21:48;2.70;;;2.70;;
17390;SDS011;8813;54.444;18.446;2024-03-17T08:24:16;3.03;;;2.93;;
17390;SDS011;8813;54.444;18.446;2024-03-17T08:26:43;2.60;;;2.60;;
17390;SDS011;8813;54.444;18.446;2024-03-17T08:29:11;2.80;;;2.80;;
17390;SDS011;8813;54.444;18.446;2024-03-17T08:31:38;2.70;;;2.70;;
17390;SDS011;8813;54.444;18.446;2024-03-17T08:34:05;2.70;;;2.70;;
17390;SDS011;8813;54.444;18.446;2024-03-17T08:36:32;2.90;;;2.90;;
17390;SDS011;8813;54.444;18.446;2024-03-17T08:38:59;2.60;;;2.60;;
17390;SDS011;8813;54.444;18.446;2024-03-17T08:41:28;2.77;;;2.77;;
17390;SDS011;8813;54.444;18.446;2024-03-17T08:43:56;2.30;;;2.30;;
17390;SDS011;8813;54.444;18.446;2024-03-17T08:46:24;2.80;;;2.80;;
17390;SDS011;8813;54.444;18.446;2024-03-17T08:48:51;2.90;;;2.90;;
17390;SDS011;8813;54.444;18.446;2024-03-17T08:51:18;2.90;;;2.90;;
17390;SDS011;8813;54.444;18.446;2024-03-17T08:53:44;3.10;;;3.10;;
17390;SDS011;8813;54.444;18.446;2024-03-17T08:56:11;3.00;;;3.00;;
17390;SDS011;8813;54.444;18.446;2024-03-17T08:58:40;2.90;;;2.90;;
17390;SDS011;8813;54.444;18.446;2024-03-17T09:01:07;3.00;;;3.00;;
17390;SDS011;8813;54.444;18.446;2024-03-17T09:03:34;2.80;;;2.80;;
17390;SDS011;8813;54.444;18.446;2024-03-17T09:06:01;2.73;;;2.60;;
17390;SDS011;8813;54.444;18.446;2024-03-17T09:08:29;2.50;;;2.50;;
17390;SDS011;8813;54.444;18.446;2024-03-17T09:10:58;2.40;;;2.40;;
17390;SDS011;8813;54.444;18.446;2024-03-17T09:13:25;2.40;;;2.40;;
17390;SDS011;8813;54.444;18.446;2024-03-17T09:15:54;2.50;;;2.50;;
17390;SDS011;8813;54.444;18.446;2024-03-17T09:18:23;2.57;;;2.57;;
17390;SDS011;8813;54.444;18.446;2024-03-17T09:20:57;2.63;;;2.63;;
17390;SDS011;8813;54.444;18.446;2024-03-17T09:23:24;2.77;;;2.77;;
17390;SDS011;8813;54.444;18.446;2024-03-17T09:25:56;2.77;;;2.77;;
17390;SDS011;8813;54.444;18.446;2024-03-17T09:28:24;2.80;;;2.80;;
17390;SDS011;8813;54.444;18.446;2024-03-17T09:30:51;2.70;;;2.70;;
17390;SDS011;8813;54.444;18.446;2024-03-17T09:33:20;2.60;;;2.60;;
17390;SDS011;8813;54.444;18.446;2024-03-17T09:35:54;2.30;;;2.30;;
17390;SDS011;8813;54.444;18.446;2024-03-17T09:38:22;2.30;;;2.30;;
17390;SDS011;8813;54.444;18.446;2024-03-17T09:40:49;8.13;;;2.50;;
17390;SDS011;8813;54.444;18.446;2024-03-17T09:43:18;2.10;;;2.10;;
17390;SDS011;8813;54.444;18.446;2024-03-17T09:45:45;2.30;;;2.30;;
17390;SDS011;8813;54.444;18.446;2024-03-17T09:48:13;2.10;;;2.10;;
17390;SDS011;8813;54.444;18.446;2024-03-17T09:50:43;1.90;;;1.90;;
17390;SDS011;8813;54.444;18.446;2024-03-17T09:53:15;2.10;;;2.10;;
17390;SDS011;8813;54.444;18.446;2024-03-17T09:55:43;1.90;;;1.90;;
17390;SDS011;8813;54.444;18.446;2024-03-17T09:58:11;2.10;;;2.10;;
17390;SDS011;8813;54.444;18.446;2024-03-17T10:00:42;2.20;;;2.20;;
17390;SDS011;8813;54.444;18.446;2024-03-17T10:03:09;2.77;;;2.67;;
17390;SDS011;8813;54.444;18.446;2024-03-17T10:05:36;2.77;;;2.77;;
17390;SDS011;8813;54.444;18.446;2024-03-17T10:08:04;2.10;;;2.10;;
17390;SDS011;8813;54.444;18.446;2024-03-17T10:10:33;2.30;;;2.30;;
17390;SDS011;8813;54.444;18.446;2024-03-17T10:13:00;2.50;;;2.50;;
17390;SDS011;8813;54.444;18.446;2024-03-17T10:15:27;2.20;;;2.20;;
17390;SDS011;8813;54.444;18.446;2024-03-17T10:17:54;2.30;;;2.30;;
17390;SDS011;8813;54.444;18.446;2024-03-17T10:20:23;2.20;;;2.20;;
17390;SDS011;8813;54.444;18.446;2024-03-17T10:22:57;2.20;;;2.20;;
17390;SDS011;8813;54.444;18.446;2024-03-17T10:25:27;2.50;;;2.50;;
17390;SDS011;8813;54.444;18.446;2024-03-17T10:27:55;2.20;;;2.20;;
17390;SDS011;8813;54.444;18.446;2024-03-17T10:30:23;2.30;;;2.30;;
17390;SDS011;8813;54.444;18.446;2024-03-17T10:32:55;2.13;;;2.13;;
17390;SDS011;8813;54.444;18.446;2024-03-17T10:35:26;2.60;;;2.60;;
17390;SDS011;8813;54.444;18.446;2024-03-17T10:37:54;1.90;;;1.90;;
17390;SDS011;8813;54.444;18.446;2024-03-17T10:40:23;2.00;;;2.00;;
17390;SDS011;8813;54.444;18.446;2024-03-17T10:42:54;2.00;;;2.00;;
17390;SDS011;8813;54.444;18.446;2024-03-17T10:45:21;1.90;;;1.90;;
17390;SDS011;8813;54.444;18.446;2024-03-17T10:47:48;1.80;;;1.80;;
17390;SDS011;8813;54.444;18.446;2024-03-17T10:50:17;2.20;;;2.20;;
17390;SDS011;8813;54.444;18.446;2024-03-17T10:52:45;1.80;;;1.80;;
17390;SDS011;8813;54.444;18.446;2024-03-17T10:55:22;2.53;;;2.43;;
17390;SDS011;8813;54.444;18.446;2024-03-17T10:57:50;1.90;;;1.90;;
17390;SDS011;8813;54.444;18.446;2024-03-17T11:00:19;2.00;;;2.00;;
17390;SDS011;8813;54.444;18.446;2024-03-17T11:02:49;2.37;;;2.37;;
17390;SDS011;8813;54.444;18.446;2024-03-17T11:05:18;2.10;;;2.10;;
17390;SDS011;8813;54.444;18.446;2024-03-17T11:07:46;2.20;;;2.20;;
17390;SDS011;8813;54.444;18.446;2024-03-17T11:10:14;2.30;;;2.20;;
17390;SDS011;8813;54.444;18.446;2024-03-17T11:12:45;2.10;;;2.10;;
17390;SDS011;8813;54.444;18.446;2024-03-17T11:20:58;2.00;;;2.00;;
17390;SDS011;8813;54.444;18.446;2024-03-17T11:23:27;1.83;;;1.83;;
17390;SDS011;8813;54.444;18.446;2024-03-17T11:25:55;1.70;;;1.70;;
17390;SDS011;8813;54.444;18.446;2024-03-17T11:34:03;1.60;;;1.60;;
17390;SDS011;8813;54.444;18.446;2024-03-17T11:36:33;1.70;;;1.70;;
17390;SDS011;8813;54.444;18.446;2024-03-17T11:39:02;2.57;;;2.57;;
17390;SDS011;8813;54.444;18.446;2024-03-17T11:41:35;2.10;;;2.00;;
17390;SDS011;8813;54.444;18.446;2024-03-17T11:44:15;1.90;;;1.90;;
17390;SDS011;8813;54.444;18.446;2024-03-17T11:46:45;2.47;;;2.47;;
17390;SDS011;8813;54.444;18.446;2024-03-17T11:49:16;1.70;;;1.70;;
17390;SDS011;8813;54.444;18.446;2024-03-17T11:51:47;1.80;;;1.80;;
17390;SDS011;8813;54.444;18.446;2024-03-17T11:54:14;1.90;;;1.90;;
17390;SDS011;8813;54.444;18.446;2024-03-17T11:56:44;1.90;;;1.90;;
17390;SDS011;8813;54.444;18.446;2024-03-17T11:59:11;3.63;;;3.43;;
17390;SDS011;8813;54.444;18.446;2024-03-17T12:01:39;1.70;;;1.70;;
17390;SDS011;8813;54.444;18.446;2024-03-17T12:04:06;1.50;;;1.50;;
17390;SDS011;8813;54.444;18.446;2024-03-17T12:06:33;1.80;;;1.80;;
17390;SDS011;8813;54.444;18.446;2024-03-17T12:09:10;1.90;;;1.90;;
17390;SDS011;8813;54.444;18.446;2024-03-17T12:11:38;1.90;;;1.90;;
17390;SDS011;8813;54.444;18.446;2024-03-17T12:14:14;1.90;;;1.90;;
17390;SDS011;8813;54.444;18.446;2024-03-17T12:16:52;1.87;;;1.87;;
17390;SDS011;8813;54.444;18.446;2024-03-17T12:19:19;1.70;;;1.70;;
17390;SDS011;8813;54.444;18.446;2024-03-17T12:21:47;1.60;;;1.60;;
17390;SDS011;8813;54.444;18.446;2024-03-17T12:24:15;1.70;;;1.70;;
17390;SDS011;8813;54.444;18.446;2024-03-17T12:26:44;1.50;;;1.50;;
17390;SDS011;8813;54.444;18.446;2024-03-17T12:29:23;1.50;;;1.50;;
17390;SDS011;8813;54.444;18.446;2024-03-17T12:31:54;1.50;;;1.50;;
17390;SDS011;8813;54.444;18.446;2024-03-17T12:34:22;1.40;;;1.40;;
17390;SDS011;8813;54.444;18.446;2024-03-17T12:36:51;1.50;;;1.50;;
17390;SDS011;8813;54.444;18.446;2024-03-17T12:39:18;1.37;;;1.37;;
17390;SDS011;8813;54.444;18.446;2024-03-17T12:42:00;1.53;;;1.53;;
17390;SDS011;8813;54.444;18.446;2024-03-17T12:44:27;1.40;;;1.40;;
17390;SDS011;8813;54.444;18.446;2024-03-17T12:46:55;1.70;;;1.70;;
17390;SDS011;8813;54.444;18.446;2024-03-17T12:49:23;1.70;;;1.70;;
17390;SDS011;8813;54.444;18.446;2024-03-17T12:51:53;2.00;;;2.00;;
17390;SDS011;8813;54.444;18.446;2024-03-17T12:54:22;2.00;;;2.00;;
17390;SDS011;8813;54.444;18.446;2024-03-17T12:56:50;1.80;;;1.80;;
17390;SDS011;8813;54.444;18.446;2024-03-17T12:59:38;1.70;;;1.70;;
17390;SDS011;8813;54.444;18.446;2024-03-17T13:02:24;1.70;;;1.70;;
17390;SDS011;8813;54.444;18.446;2024-03-17T13:07:48;2.00;;;2.00;;
17390;SDS011;8813;54.444;18.446;2024-03-17T13:10:19;1.93;;;1.93;;
17390;SDS011;8813;54.444;18.446;2024-03-17T13:12:46;2.00;;;2.00;;
17390;SDS011;8813;54.444;18.446;2024-03-17T13:15:15;1.93;;;1.93;;
17390;SDS011;8813;54.444;18.446;2024-03-17T13:17:43;2.50;;;2.50;;
17390;SDS011;8813;54.444;18.446;2024-03-17T13:20:12;1.80;;;1.80;;
17390;SDS011;8813;54.444;18.446;2024-03-17T13:22:41;1.70;;;1.70;;
17390;SDS011;8813;54.444;18.446;2024-03-17T13:25:12;1.90;;;1.90;;
17390;SDS011;8813;54.444;18.446;2024-03-17T13:27:41;1.60;;;1.60;;
17390;SDS011;8813;54.444;18.446;2024-03-17T13:30:10;1.90;;;1.90;;
17390;SDS011;8813;54.444;18.446;2024-03-17T13:32:38;2.40;;;1.90;;
17390;SDS011;8813;54.444;18.446;2024-03-17T13:35:11;1.83;;;1.83;;
17390;SDS011;8813;54.444;18.446;2024-03-17T13:37:43;2.00;;;2.00;;
17390;SDS011;8813;54.444;18.446;2024-03-17T13:40:11;1.90;;;1.90;;
17390;SDS011;8813;54.444;18.446;2024-03-17T13:42:41;2.00;;;2.00;;
17390;SDS011;8813;54.444;18.446;2024-03-17T13:45:10;2.00;;;2.00;;
17390;SDS011;8813;54.444;18.446;2024-03-17T13:47:38;2.10;;;2.10;;
17390;SDS011;8813;54.444;18.446;2024-03-17T13:50:05;2.10;;;2.10;;
17390;SDS011;8813;54.444;18.446;2024-03-17T13:52:36;2.20;;;2.20;;
17390;SDS011;8813;54.444;18.446;2024-03-17T13:55:05;2.20;;;2.20;;
17390;SDS011;8813;54.444;18.446;2024-03-17T13:57:32;2.30;;;2.30;;
17390;SDS011;8813;54.444;18.446;2024-03-17T13:59:59;2.30;;;2.20;;
17390;SDS011;8813;54.444;18.446;2024-03-17T14:02:27;2.40;;;2.40;;
17390;SDS011;8813;54.444;18.446;2024-03-17T14:04:54;2.30;;;2.30;;
17390;SDS011;8813;54.444;18.446;2024-03-17T14:07:21;2.30;;;2.30;;
17390;SDS011;8813;54.444;18.446;2024-03-17T14:09:48;2.40;;;2.40;;
17390;SDS011;8813;54.444;18.446;2024-03-17T14:12:16;2.10;;;2.10;;
17390;SDS011;8813;54.444;18.446;2024-03-17T14:14:43;2.20;;;2.20;;
17390;SDS011;8813;54.444;18.446;2024-03-17T14:17:10;2.80;;;2.70;;
17390;SDS011;8813;54.444;18.446;2024-03-17T14:19:37;2.40;;;2.40;;
17390;SDS011;8813;54.444;18.446;2024-03-17T14:22:04;2.60;;;2.60;;
17390;SDS011;8813;54.444;18.446;2024-03-17T14:24:31;2.30;;;2.30;;
17390;SDS011;8813;54.444;18.446;2024-03-17T14:27:00;2.10;;;2.10;;
17390;SDS011;8813;54.444;18.446;2024-03-17T14:29:28;2.20;;;2.20;;
17390;SDS011;8813;54.444;18.446;2024-03-17T14:31:56;2.40;;;2.40;;
17390;SDS011;8813;54.444;18.446;2024-03-17T14:34:23;2.20;;;2.20;;
17390;SDS011;8813;54.444;18.446;2024-03-17T14:36:52;1.90;;;1.90;;
17390;SDS011;8813;54.444;18.446;2024-03-17T14:39:19;2.00;;;2.00;;
17390;SDS011;8813;54.444;18.446;2024-03-17T14:41:46;2.00;;;2.00;;
17390;SDS011;8813;54.444;18.446;2024-03-17T14:44:13;2.50;;;2.40;;
17390;SDS011;8813;54.444;18.446;2024-03-17T14:46:41;2.00;;;2.00;;
17390;SDS011;8813;54.444;18.446;2024-03-17T14:49:08;2.10;;;2.10;;
17390;SDS011;8813;54.444;18.446;2024-03-17T14:51:35;2.10;;;2.10;;
17390;SDS011;8813;54.444;18.446;2024-03-17T14:54:02;1.90;;;1.90;;
17390;SDS011;8813;54.444;18.446;2024-03-17T14:56:31;2.23;;;2.23;;
17390;SDS011;8813;54.444;18.446;2024-03-17T14:58:58;2.40;;;2.40;;
17390;SDS011;8813;54.444;18.446;2024-03-17T15:01:24;2.50;;;2.50;;
17390;SDS011;8813;54.444;18.446;2024-03-17T15:03:56;2.40;;;2.40;;
17390;SDS011;8813;54.444;18.446;2024-03-17T15:06:23;2.30;;;2.30;;